createdAt,value
2023-02-09T00:01:31.127Z,100.00
2023-02-09T00:03:59.571Z,100.00
2023-02-09T00:06:30.003Z,100.00
2023-02-09T00:08:59.003Z,100.00
2023-02-09T00:11:48.421Z,100.00
2023-02-09T00:14:21.530Z,100.00
2023-02-09T00:16:49.481Z,100.00
2023-02-09T00:19:17.992Z,100.00
2023-02-09T00:21:45.135Z,100.00
2023-02-09T00:24:12.493Z,100.00
2023-02-09T00:26:39.767Z,100.00
2023-02-09T00:29:07.757Z,100.00
2023-02-09T00:31:35.279Z,99.83
2023-02-09T00:34:02.447Z,99.72
2023-02-09T00:36:29.891Z,99.99
2023-02-09T00:38:57.012Z,100.00
2023-02-09T00:41:42.499Z,99.91
2023-02-09T00:44:11.184Z,100.00
2023-02-09T00:46:38.246Z,99.74
2023-02-09T00:49:06.172Z,99.74
2023-02-09T00:51:33.212Z,99.67
2023-02-09T00:54:00.080Z,99.87
2023-02-09T00:56:27.270Z,100.00
2023-02-09T00:58:54.083Z,100.00
2023-02-09T01:01:21.019Z,100.00
2023-02-09T01:03:47.790Z,100.00
2023-02-09T01:06:14.606Z,100.00
2023-02-09T01:08:41.369Z,100.00
2023-02-09T01:11:10.756Z,100.00
2023-02-09T01:13:38.163Z,100.00
2023-02-09T01:16:14.394Z,100.00
2023-02-09T01:18:42.500Z,100.00
2023-02-09T01:21:17.124Z,100.00
2023-02-09T01:23:44.438Z,100.00
2023-02-09T01:26:12.823Z,100.00
2023-02-09T01:28:40.038Z,100.00
2023-02-09T01:31:20.157Z,100.00
2023-02-09T01:33:47.459Z,100.00
2023-02-09T01:36:14.542Z,100.00
2023-02-09T01:38:41.325Z,100.00
2023-02-09T01:41:08.097Z,100.00
2023-02-09T01:43:57.397Z,100.00
2023-02-09T01:46:30.346Z,100.00
2023-02-09T01:49:19.841Z,100.00
2023-02-09T01:51:56.433Z,100.00
2023-02-09T01:54:34.730Z,100.00
2023-02-09T01:57:10.540Z,100.00
2023-02-09T01:59:40.812Z,100.00
2023-02-09T02:02:09.013Z,100.00
2023-02-09T02:04:37.696Z,100.00
2023-02-09T02:07:25.414Z,100.00
2023-02-09T02:09:53.763Z,100.00
2023-02-09T02:12:21.086Z,100.00
2023-02-09T02:14:48.138Z,100.00
2023-02-09T02:17:33.162Z,100.00
2023-02-09T02:20:34.525Z,100.00
2023-02-09T02:23:39.759Z,100.00
2023-02-09T02:26:52.934Z,100.00
2023-02-09T02:29:57.072Z,100.00
2023-02-09T02:33:03.782Z,100.00
2023-02-09T02:35:38.342Z,100.00
2023-02-09T02:38:31.813Z,100.00
2023-02-09T02:41:22.046Z,100.00
2023-02-09T02:44:21.372Z,100.00
2023-02-09T02:46:57.761Z,100.00
2023-02-09T02:49:31.871Z,100.00
2023-02-09T02:52:04.757Z,100.00
2023-02-09T02:54:41.435Z,100.00
2023-02-09T02:57:18.582Z,100.00
2023-02-09T02:59:54.838Z,100.00
2023-02-09T03:02:38.929Z,100.00
2023-02-09T03:05:07.824Z,100.00
2023-02-09T03:07:34.674Z,100.00
2023-02-09T03:10:03.222Z,100.00
2023-02-09T03:13:14.993Z,100.00
2023-02-09T03:16:19.505Z,100.00
2023-02-09T03:18:53.422Z,100.00
2023-02-09T03:21:47.013Z,100.00
2023-02-09T03:24:57.115Z,100.00
2023-02-09T03:27:39.975Z,100.00
2023-02-09T03:30:10.794Z,100.00
2023-02-09T03:32:41.340Z,100.00
2023-02-09T03:35:13.070Z,100.00
2023-02-09T03:37:39.976Z,100.00
2023-02-09T03:40:07.707Z,100.00
2023-02-09T03:42:34.591Z,100.00
2023-02-09T03:45:01.914Z,100.00
2023-02-09T03:47:30.932Z,100.00
2023-02-09T03:49:58.478Z,100.00
2023-02-09T03:52:25.444Z,100.00
2023-02-09T03:54:52.187Z,100.00
2023-02-09T03:57:18.979Z,100.00
2023-02-09T03:59:45.777Z,100.00
2023-02-09T04:02:13.147Z,100.00
2023-02-09T04:04:40.078Z,100.00
2023-02-09T04:07:07.457Z,100.00
2023-02-09T04:09:34.430Z,100.00
2023-02-09T04:12:01.213Z,100.00
2023-02-09T04:14:28.303Z,100.00
2023-02-09T04:16:55.073Z,100.00
2023-02-09T04:19:22.045Z,100.00
2023-02-09T04:21:48.837Z,100.00
2023-02-09T04:24:15.622Z,100.00
2023-02-09T04:26:42.463Z,100.00
2023-02-09T04:29:09.642Z,100.00
2023-02-09T04:31:36.472Z,100.00
2023-02-09T04:34:03.384Z,100.00
2023-02-09T04:36:30.724Z,100.00
2023-02-09T04:38:57.670Z,100.00
2023-02-09T04:41:24.576Z,100.00
2023-02-09T04:43:51.532Z,100.00
2023-02-09T04:46:19.034Z,100.00
2023-02-09T04:48:46.503Z,100.00
2023-02-09T04:51:13.769Z,100.00
2023-02-09T04:53:41.244Z,100.00
2023-02-09T04:56:08.400Z,100.00
2023-02-09T04:58:53.736Z,100.00
2023-02-09T05:01:22.929Z,100.00
2023-02-09T05:03:50.078Z,100.00
2023-02-09T05:06:17.240Z,100.00
2023-02-09T05:08:44.612Z,100.00
2023-02-09T05:11:12.218Z,100.00
2023-02-09T05:13:39.497Z,100.00
2023-02-09T05:16:09.021Z,100.00
2023-02-09T05:18:36.823Z,100.00
2023-02-09T05:21:03.850Z,100.00
2023-02-09T05:23:30.972Z,100.00
2023-02-09T05:25:58.137Z,100.00
2023-02-09T05:28:25.740Z,100.00
2023-02-09T05:30:54.140Z,100.00
2023-02-09T05:33:26.033Z,100.00
2023-02-09T05:35:55.883Z,100.00
2023-02-09T05:38:23.105Z,100.00
2023-02-09T05:40:50.556Z,100.00
2023-02-09T05:43:18.529Z,100.00
2023-02-09T05:45:46.568Z,100.00
2023-02-09T05:48:13.927Z,100.00
2023-02-09T05:50:40.770Z,100.00
2023-02-09T05:53:08.957Z,100.00
2023-02-09T05:55:35.786Z,100.00
2023-02-09T05:58:02.713Z,100.00
2023-02-09T06:00:30.068Z,100.00
2023-02-09T06:02:57.352Z,100.00
2023-02-09T06:05:24.603Z,100.00
2023-02-09T06:07:51.487Z,100.00
2023-02-09T06:10:19.496Z,100.00
2023-02-09T06:12:46.350Z,100.00
2023-02-09T06:15:16.622Z,100.00
2023-02-09T06:17:46.589Z,100.00
2023-02-09T06:20:13.839Z,100.00
2023-02-09T06:22:40.693Z,100.00
2023-02-09T06:25:08.403Z,100.00
2023-02-09T06:27:36.220Z,100.00
2023-02-09T06:30:03.161Z,100.00
2023-02-09T06:32:30.016Z,100.00
2023-02-09T06:34:56.815Z,100.00
2023-02-09T06:37:23.763Z,100.00
2023-02-09T06:39:50.530Z,100.00
2023-02-09T06:42:17.317Z,100.00
2023-02-09T06:44:44.512Z,100.00
2023-02-09T06:47:11.313Z,100.00
2023-02-09T06:49:38.133Z,100.00
2023-02-09T06:52:06.001Z,100.00
2023-02-09T06:54:32.886Z,100.00
2023-02-09T06:56:59.838Z,100.00
2023-02-09T06:59:26.589Z,100.00
2023-02-09T07:01:55.001Z,100.00
2023-02-09T07:04:22.722Z,100.00
2023-02-09T07:06:49.583Z,100.00
2023-02-09T07:09:16.758Z,100.00
2023-02-09T07:11:44.075Z,100.00
2023-02-09T07:14:10.928Z,100.00
2023-02-09T07:16:38.217Z,100.00
2023-02-09T07:19:05.011Z,100.00
2023-02-09T07:21:31.868Z,100.00
2023-02-09T07:23:58.666Z,100.00
2023-02-09T07:26:25.529Z,100.00
2023-02-09T07:28:52.455Z,100.00
2023-02-09T07:31:19.737Z,100.00
2023-02-09T07:33:46.865Z,100.00
2023-02-09T07:36:16.392Z,100.00
2023-02-09T07:38:43.687Z,100.00
2023-02-09T07:41:25.305Z,100.00
2023-02-09T07:43:52.792Z,100.00
2023-02-09T07:46:22.341Z,100.00
2023-02-09T07:48:49.953Z,100.00
2023-02-09T07:51:25.848Z,100.00
2023-02-09T07:53:53.384Z,100.00
2023-02-09T07:56:20.202Z,100.00
2023-02-09T07:58:47.315Z,100.00
2023-02-09T08:01:14.716Z,100.00
2023-02-09T08:03:46.906Z,100.00
2023-02-09T08:06:41.021Z,100.00
2023-02-09T08:09:10.585Z,100.00
2023-02-09T08:11:56.765Z,100.00
2023-02-09T08:14:48.551Z,100.00
2023-02-09T08:17:24.539Z,100.00
2023-02-09T08:19:58.857Z,100.00
2023-02-09T08:22:31.415Z,100.00
2023-02-09T08:25:00.432Z,100.00
2023-02-09T08:27:28.025Z,100.00
2023-02-09T08:29:54.973Z,100.00
2023-02-09T08:32:22.109Z,100.00
2023-02-09T08:34:48.878Z,100.00
2023-02-09T08:37:15.726Z,100.00
2023-02-09T08:39:42.506Z,100.00
2023-02-09T08:42:09.262Z,100.00
2023-02-09T08:44:36.427Z,100.00
2023-02-09T08:47:03.497Z,100.00
2023-02-09T08:49:30.441Z,100.00
2023-02-09T08:51:57.257Z,100.00
2023-02-09T08:54:25.505Z,100.00
2023-02-09T08:56:52.443Z,100.00
2023-02-09T08:59:20.233Z,100.00
2023-02-09T09:01:47.012Z,100.00
2023-02-09T09:04:14.136Z,100.00
2023-02-09T09:06:40.932Z,100.00
2023-02-09T09:09:07.726Z,100.00
2023-02-09T09:11:34.953Z,100.00
2023-02-09T09:14:01.807Z,100.00
2023-02-09T09:16:28.745Z,100.00
2023-02-09T09:18:55.655Z,100.00
2023-02-09T09:21:22.495Z,100.00
2023-02-09T09:23:49.816Z,100.00
2023-02-09T09:26:17.951Z,100.00
2023-02-09T09:28:45.683Z,100.00
2023-02-09T09:31:16.705Z,100.00
2023-02-09T09:33:45.069Z,100.00
2023-02-09T09:36:14.908Z,100.00
2023-02-09T09:38:42.361Z,100.00
2023-02-09T09:41:24.683Z,100.00
2023-02-09T09:43:54.117Z,100.00
2023-02-09T09:46:44.705Z,100.00
2023-02-09T09:49:28.102Z,100.00
2023-02-09T09:52:09.704Z,100.00
2023-02-09T09:54:37.680Z,100.00
2023-02-09T09:57:20.837Z,100.00
2023-02-09T09:59:48.045Z,100.00
2023-02-09T10:02:26.650Z,100.00
2023-02-09T10:05:02.027Z,100.00
2023-02-09T10:07:34.618Z,100.00
2023-02-09T10:10:23.018Z,100.00
2023-02-09T10:12:53.058Z,100.00
2023-02-09T10:15:32.038Z,100.00
2023-02-09T10:18:00.030Z,100.00
2023-02-09T10:20:53.151Z,98.52
2023-02-09T10:23:26.880Z,97.04
2023-02-09T10:26:17.824Z,96.85
2023-02-09T10:28:50.631Z,95.45
2023-02-09T10:31:32.471Z,94.11
2023-02-09T10:34:08.329Z,93.05
2023-02-09T10:36:47.128Z,92.06
2023-02-09T10:39:23.004Z,91.60
2023-02-09T10:41:55.846Z,91.40
2023-02-09T10:44:35.172Z,91.40
2023-02-09T10:47:32.202Z,89.78
2023-02-09T10:50:17.262Z,88.44
2023-02-09T10:53:03.331Z,88.24
2023-02-09T10:55:41.949Z,86.97
2023-02-09T10:58:11.831Z,87.83
2023-02-09T11:01:12.924Z,87.42
2023-02-09T11:04:23.537Z,85.56
2023-02-09T11:07:00.527Z,84.67
2023-02-09T11:09:28.926Z,83.67
2023-02-09T11:11:57.953Z,82.50
2023-02-09T11:14:25.659Z,81.71
2023-02-09T11:17:13.661Z,81.80
2023-02-09T11:20:15.067Z,80.46
2023-02-09T11:22:55.321Z,78.14
2023-02-09T11:25:41.948Z,77.36
2023-02-09T11:28:46.824Z,77.45
2023-02-09T11:31:47.911Z,77.32
2023-02-09T11:35:09.953Z,76.18
2023-02-09T11:38:01.795Z,76.16
2023-02-09T11:40:35.429Z,75.23
2023-02-09T11:43:13.869Z,74.85
2023-02-09T11:45:48.440Z,74.46
2023-02-09T11:48:41.268Z,73.39
2023-02-09T11:51:12.177Z,73.85
2023-02-09T11:53:54.160Z,73.11
2023-02-09T11:56:24.286Z,73.08
2023-02-09T11:59:11.193Z,71.88
2023-02-09T12:01:52.849Z,72.30
2023-02-09T12:04:40.855Z,72.20
2023-02-09T12:07:55.367Z,71.77
2023-02-09T12:10:31.243Z,71.47
2023-02-09T12:13:13.141Z,71.89
2023-02-09T12:15:54.929Z,72.44
2023-02-09T12:18:27.076Z,70.32
2023-02-09T12:20:57.318Z,69.44
2023-02-09T12:23:33.126Z,68.47
2023-02-09T12:26:02.704Z,69.03
2023-02-09T12:28:32.638Z,69.47
2023-02-09T12:31:22.528Z,69.75
2023-02-09T12:33:49.417Z,68.10
2023-02-09T12:36:16.228Z,68.12
2023-02-09T12:38:56.333Z,66.98
2023-02-09T12:41:24.579Z,67.36
2023-02-09T12:44:25.197Z,66.20
2023-02-09T12:46:55.912Z,65.08
2023-02-09T12:49:29.157Z,64.81
2023-02-09T12:52:02.061Z,64.85
2023-02-09T12:54:52.665Z,63.86
2023-02-09T12:57:19.615Z,63.90
2023-02-09T13:00:03.622Z,64.20
2023-02-09T13:02:44.878Z,64.62
2023-02-09T13:05:28.200Z,63.26
2023-02-09T13:08:19.658Z,63.57
2023-02-09T13:11:03.500Z,63.31
2023-02-09T13:13:39.938Z,63.23
2023-02-09T13:16:32.804Z,62.93
2023-02-09T13:19:23.572Z,63.32
2023-02-09T13:22:19.006Z,62.90
2023-02-09T13:24:57.268Z,62.50
2023-02-09T13:27:26.435Z,62.69
2023-02-09T13:29:56.550Z,62.64
2023-02-09T13:32:54.158Z,62.61
2023-02-09T13:35:26.930Z,62.38
2023-02-09T13:37:59.338Z,61.51
2023-02-09T13:40:31.326Z,61.46
2023-02-09T13:43:06.693Z,62.02
2023-02-09T13:45:33.595Z,62.27
2023-02-09T13:48:02.892Z,61.98
2023-02-09T13:50:30.593Z,61.58
2023-02-09T13:53:11.434Z,60.74
2023-02-09T13:55:45.446Z,61.63
2023-02-09T13:58:32.793Z,60.92
2023-02-09T14:01:06.246Z,60.99
2023-02-09T14:03:57.121Z,61.01
2023-02-09T14:06:51.666Z,61.25
2023-02-09T14:09:24.707Z,60.98
2023-02-09T14:11:57.447Z,61.08
2023-02-09T14:14:54.749Z,61.34
2023-02-09T14:17:29.610Z,60.96
2023-02-09T14:19:59.130Z,60.68
2023-02-09T14:22:40.122Z,60.85
2023-02-09T14:25:13.080Z,61.17
2023-02-09T14:27:41.221Z,61.73
2023-02-09T14:30:26.221Z,61.54
2023-02-09T14:32:59.090Z,60.95
2023-02-09T14:35:31.420Z,61.86
2023-02-09T14:38:02.008Z,62.29
2023-02-09T14:40:34.401Z,61.84
2023-02-09T14:43:10.368Z,61.49
2023-02-09T14:45:43.498Z,61.24
2023-02-09T14:48:26.170Z,60.78
2023-02-09T14:50:59.863Z,60.97
2023-02-09T14:53:31.305Z,61.50
2023-02-09T14:55:59.081Z,61.93
2023-02-09T14:58:30.515Z,61.40
2023-02-09T15:01:01.258Z,61.51
2023-02-09T15:03:28.777Z,61.84
2023-02-09T15:05:59.730Z,61.83
2023-02-09T15:08:29.062Z,62.03
2023-02-09T15:11:01.791Z,61.72
2023-02-09T15:13:30.639Z,61.18
2023-02-09T15:15:57.634Z,61.46
2023-02-09T15:18:27.932Z,61.80
2023-02-09T15:20:54.936Z,62.01
2023-02-09T15:23:21.741Z,62.09
2023-02-09T15:25:48.859Z,61.90
2023-02-09T15:28:28.627Z,62.12
2023-02-09T15:30:58.376Z,62.26
2023-02-09T15:33:26.557Z,62.48
2023-02-09T15:35:53.554Z,62.86
2023-02-09T15:38:21.051Z,63.09
2023-02-09T15:41:08.843Z,63.52
2023-02-09T15:43:54.874Z,63.75
2023-02-09T15:46:40.628Z,64.22
2023-02-09T15:49:08.033Z,64.36
2023-02-09T15:51:38.550Z,65.04
2023-02-09T15:54:13.060Z,65.51
2023-02-09T15:56:40.068Z,65.92
2023-02-09T15:59:06.989Z,66.01
2023-02-09T16:01:34.784Z,65.62
2023-02-09T16:04:13.458Z,65.86
2023-02-09T16:06:47.348Z,66.17
2023-02-09T16:09:26.905Z,66.06
2023-02-09T16:11:53.958Z,66.36
2023-02-09T16:14:24.228Z,66.55
2023-02-09T16:16:51.588Z,66.53
2023-02-09T16:19:19.684Z,66.89
2023-02-09T16:21:56.393Z,67.15
2023-02-09T16:24:42.257Z,67.51
2023-02-09T16:27:21.822Z,67.72
2023-02-09T16:29:49.015Z,68.02
2023-02-09T16:32:24.869Z,68.34
2023-02-09T16:34:52.093Z,68.51
2023-02-09T16:37:29.367Z,68.70
2023-02-09T16:39:58.432Z,68.81
2023-02-09T16:42:25.630Z,69.27
2023-02-09T16:44:53.059Z,69.45
2023-02-09T16:47:27.287Z,69.80
2023-02-09T16:50:05.119Z,70.27
2023-02-09T16:52:32.511Z,70.38
2023-02-09T16:55:14.610Z,70.50
2023-02-09T16:57:41.402Z,70.59
2023-02-09T17:00:09.460Z,70.65
2023-02-09T17:02:44.114Z,70.87
2023-02-09T17:05:25.150Z,71.21
2023-02-09T17:07:59.434Z,71.41
2023-02-09T17:10:31.412Z,71.44
2023-02-09T17:12:58.811Z,71.89
2023-02-09T17:15:30.972Z,71.95
2023-02-09T17:18:04.826Z,72.16
2023-02-09T17:20:46.622Z,72.61
2023-02-09T17:23:20.939Z,73.09
2023-02-09T17:25:51.233Z,73.08
2023-02-09T17:28:21.388Z,73.42
2023-02-09T17:30:49.798Z,73.54
2023-02-09T17:33:25.282Z,73.67
2023-02-09T17:36:23.682Z,74.04
2023-02-09T17:38:41.641Z,74.09
2023-02-09T17:41:33.275Z,74.45
2023-02-09T17:44:31.931Z,74.98
2023-02-09T17:47:06.394Z,74.93
2023-02-09T17:49:34.328Z,75.08
2023-02-09T17:52:01.204Z,75.04
2023-02-09T17:54:28.074Z,75.53
2023-02-09T17:56:55.252Z,75.60
2023-02-09T17:59:22.074Z,75.47
2023-02-09T18:01:50.517Z,75.48
2023-02-09T18:04:26.895Z,75.53
2023-02-09T18:06:55.505Z,75.67
2023-02-09T18:09:23.425Z,75.76
2023-02-09T18:12:19.396Z,75.95
2023-02-09T18:14:46.533Z,75.97
2023-02-09T18:17:13.336Z,75.81
2023-02-09T18:19:40.148Z,76.19
2023-02-09T18:22:07.525Z,76.31
2023-02-09T18:24:35.541Z,76.27
2023-02-09T18:27:02.909Z,76.46
2023-02-09T18:29:30.264Z,76.43
2023-02-09T18:32:02.695Z,76.58
2023-02-09T18:34:30.278Z,76.90
2023-02-09T18:36:57.506Z,76.87
2023-02-09T18:39:24.566Z,77.18
2023-02-09T18:41:55.226Z,77.27
2023-02-09T18:44:29.406Z,77.54
2023-02-09T18:47:00.533Z,77.84
2023-02-09T18:49:28.107Z,77.80
2023-02-09T18:51:57.067Z,78.15
2023-02-09T18:54:24.061Z,78.28
2023-02-09T18:56:52.888Z,78.71
2023-02-09T18:59:20.051Z,78.82
2023-02-09T19:01:46.978Z,78.84
2023-02-09T19:04:14.034Z,78.78
2023-02-09T19:06:40.916Z,78.92
2023-02-09T19:09:07.777Z,78.82
2023-02-09T19:11:34.641Z,79.00
2023-02-09T19:14:19.939Z,79.23
2023-02-09T19:16:46.697Z,79.34
2023-02-09T19:19:13.566Z,79.09
2023-02-09T19:21:40.326Z,79.17
2023-02-09T19:24:07.228Z,79.48
2023-02-09T19:26:34.293Z,79.63
2023-02-09T19:29:01.131Z,79.88
2023-02-09T19:31:28.066Z,79.81
2023-02-09T19:33:56.707Z,80.12
2023-02-09T19:36:24.635Z,80.15
2023-02-09T19:38:51.447Z,80.12
2023-02-09T19:41:18.522Z,80.61
2023-02-09T19:43:45.429Z,80.50
2023-02-09T19:46:12.276Z,80.69
2023-02-09T19:48:40.428Z,80.63
2023-02-09T19:51:08.306Z,80.73
2023-02-09T19:53:35.620Z,80.92
2023-02-09T19:56:02.470Z,81.05
2023-02-09T19:58:29.815Z,81.15
2023-02-09T20:00:57.099Z,81.14
2023-02-09T20:03:24.910Z,81.06
2023-02-09T20:05:52.209Z,81.12
2023-02-09T20:08:20.569Z,81.39
2023-02-09T20:10:47.876Z,81.29
2023-02-09T20:13:15.672Z,81.22
2023-02-09T20:15:44.626Z,81.41
2023-02-09T20:18:13.532Z,81.44
2023-02-09T20:20:43.394Z,81.65
2023-02-09T20:23:10.764Z,81.49
2023-02-09T20:25:44.037Z,81.53
2023-02-09T20:28:14.025Z,81.80
2023-02-09T20:30:46.710Z,81.57
2023-02-09T20:33:14.788Z,81.84
2023-02-09T20:35:43.254Z,82.03
2023-02-09T20:38:11.045Z,81.98
2023-02-09T20:40:38.138Z,81.82
2023-02-09T20:43:23.458Z,82.04
2023-02-09T20:46:09.016Z,81.98
2023-02-09T20:48:35.923Z,82.17
2023-02-09T20:51:04.024Z,82.19
2023-02-09T20:53:32.182Z,82.14
2023-02-09T20:55:59.385Z,82.53
2023-02-09T20:58:26.394Z,82.61
2023-02-09T21:00:53.472Z,82.76
2023-02-09T21:03:20.909Z,82.53
2023-02-09T21:05:47.771Z,82.95
2023-02-09T21:08:14.529Z,83.10
2023-02-09T21:10:41.421Z,83.31
2023-02-09T21:13:10.241Z,83.49
2023-02-09T21:15:42.049Z,83.51
2023-02-09T21:18:09.133Z,84.09
2023-02-09T21:20:36.033Z,83.97
2023-02-09T21:23:03.154Z,84.20
2023-02-09T21:25:30.726Z,84.41
2023-02-09T21:27:59.798Z,84.37
2023-02-09T21:30:27.684Z,84.58
2023-02-09T21:32:56.149Z,84.76
2023-02-09T21:35:24.262Z,84.84
2023-02-09T21:37:51.015Z,84.75
2023-02-09T21:40:20.543Z,84.60
2023-02-09T21:42:49.331Z,84.84
2023-02-09T21:45:16.259Z,84.82
2023-02-09T21:47:43.199Z,84.74
2023-02-09T21:50:12.107Z,84.96
2023-02-09T21:52:38.993Z,85.42
2023-02-09T21:55:08.359Z,85.28
2023-02-09T21:57:36.299Z,85.31
2023-02-09T22:00:05.596Z,85.48
2023-02-09T22:02:32.634Z,85.56
2023-02-09T22:04:59.664Z,85.43
2023-02-09T22:07:26.762Z,85.74
2023-02-09T22:09:54.042Z,85.68
2023-02-09T22:12:20.918Z,85.85
2023-02-09T22:14:47.739Z,86.04
2023-02-09T22:17:14.676Z,86.01
2023-02-09T22:19:41.538Z,85.80
2023-02-09T22:22:08.383Z,86.03
2023-02-09T22:24:35.289Z,86.06
2023-02-09T22:27:03.695Z,85.96
2023-02-09T22:29:33.356Z,86.43
2023-02-09T22:32:00.325Z,86.31
2023-02-09T22:34:27.260Z,86.31
2023-02-09T22:36:54.333Z,86.21
2023-02-09T22:39:21.862Z,86.03
2023-02-09T22:41:48.929Z,86.48
2023-02-09T22:44:17.811Z,86.22
2023-02-09T22:46:45.657Z,86.02
2023-02-09T22:49:20.212Z,86.08
2023-02-09T22:51:50.059Z,86.09
2023-02-09T22:54:19.265Z,86.09
2023-02-09T22:56:46.844Z,86.10
2023-02-09T22:59:15.236Z,86.05
2023-02-09T23:01:43.247Z,86.20
2023-02-09T23:04:10.716Z,86.20
2023-02-09T23:06:37.563Z,86.18
2023-02-09T23:09:07.843Z,85.98
2023-02-09T23:11:35.296Z,86.51
2023-02-09T23:14:11.143Z,86.18
2023-02-09T23:16:40.802Z,86.63
2023-02-09T23:19:13.105Z,86.62
2023-02-09T23:21:44.044Z,86.38
2023-02-09T23:24:12.388Z,86.53
2023-02-09T23:26:39.594Z,86.60
2023-02-09T23:29:10.489Z,86.61
2023-02-09T23:31:37.800Z,86.52
2023-02-09T23:34:04.897Z,86.66
2023-02-09T23:36:33.352Z,86.51
2023-02-09T23:39:04.715Z,86.49
2023-02-09T23:41:31.886Z,86.65
2023-02-09T23:43:59.486Z,87.09
2023-02-09T23:46:28.996Z,87.10
2023-02-09T23:48:56.723Z,87.32
2023-02-09T23:51:29.858Z,87.38
2023-02-09T23:54:00.376Z,87.27
2023-02-09T23:56:28.531Z,87.30
2023-02-09T23:58:55.833Z,87.93
